sensor_id;sensor_type;location;lat;lon;timestamp;P1;durP1;ratioP1;P2;durP2;ratioP2
55037;SDS011;40937;53.594;10.034;2023-03-08T00:00:38;5.63;;;1.90;;
55037;SDS011;40937;53.594;10.034;2023-03-08T00:03:05;4.07;;;1.80;;
55037;SDS011;40937;53.594;10.034;2023-03-08T00:05:32;6.22;;;1.70;;
55037;SDS011;40937;53.594;10.034;2023-03-08T00:08:00;4.55;;;1.85;;
55037;SDS011;40937;53.594;10.034;2023-03-08T00:10:28;5.07;;;1.83;;
55037;SDS011;40937;53.594;10.034;2023-03-08T00:12:59;6.40;;;1.90;;
55037;SDS011;40937;53.594;10.034;2023-03-08T00:15:26;4.45;;;1.48;;
55037;SDS011;40937;53.594;10.034;2023-03-08T00:17:53;4.60;;;1.60;;
55037;SDS011;40937;53.594;10.034;2023-03-08T00:20:20;7.82;;;1.73;;
55037;SDS011;40937;53.594;10.034;2023-03-08T00:22:47;4.43;;;1.90;;
55037;SDS011;40937;53.594;10.034;2023-03-08T00:25:14;1.95;;;1.55;;
55037;SDS011;40937;53.594;10.034;2023-03-08T00:27:43;7.07;;;2.28;;
55037;SDS011;40937;53.594;10.034;2023-03-08T00:30:11;7.97;;;1.70;;
55037;SDS011;40937;53.594;10.034;2023-03-08T00:32:38;4.60;;;1.52;;
55037;SDS011;40937;53.594;10.034;2023-03-08T00:35:06;2.80;;;1.50;;
55037;SDS011;40937;53.594;10.034;2023-03-08T00:37:37;5.57;;;1.83;;
55037;SDS011;40937;53.594;10.034;2023-03-08T00:40:05;5.43;;;1.98;;
55037;SDS011;40937;53.594;10.034;2023-03-08T00:42:34;4.57;;;1.85;;
55037;SDS011;40937;53.594;10.034;2023-03-08T00:45:03;4.00;;;2.15;;
55037;SDS011;40937;53.594;10.034;2023-03-08T00:47:30;3.13;;;1.88;;
55037;SDS011;40937;53.594;10.034;2023-03-08T00:50:00;6.72;;;2.13;;
55037;SDS011;40937;53.594;10.034;2023-03-08T00:52:27;6.25;;;2.05;;
55037;SDS011;40937;53.594;10.034;2023-03-08T00:54:54;2.15;;;1.77;;
55037;SDS011;40937;53.594;10.034;2023-03-08T00:57:21;5.13;;;2.28;;
55037;SDS011;40937;53.594;10.034;2023-03-08T00:59:48;8.82;;;2.40;;
55037;SDS011;40937;53.594;10.034;2023-03-08T01:02:17;4.88;;;1.70;;
55037;SDS011;40937;53.594;10.034;2023-03-08T01:04:44;4.10;;;1.55;;
55037;SDS011;40937;53.594;10.034;2023-03-08T01:07:12;2.70;;;1.70;;
55037;SDS011;40937;53.594;10.034;2023-03-08T01:09:39;4.25;;;1.73;;
55037;SDS011;40937;53.594;10.034;2023-03-08T01:12:07;3.90;;;1.70;;
55037;SDS011;40937;53.594;10.034;2023-03-08T01:14:36;4.72;;;2.75;;
55037;SDS011;40937;53.594;10.034;2023-03-08T01:17:03;3.47;;;1.63;;
55037;SDS011;40937;53.594;10.034;2023-03-08T01:19:32;2.60;;;1.70;;
55037;SDS011;40937;53.594;10.034;2023-03-08T01:21:59;3.22;;;1.75;;
55037;SDS011;40937;53.594;10.034;2023-03-08T01:24:26;4.40;;;1.60;;
55037;SDS011;40937;53.594;10.034;2023-03-08T01:26:55;2.38;;;2.03;;
55037;SDS011;40937;53.594;10.034;2023-03-08T01:29:26;1.98;;;1.88;;
55037;SDS011;40937;53.594;10.034;2023-03-08T01:31:56;2.13;;;1.92;;
55037;SDS011;40937;53.594;10.034;2023-03-08T01:34:24;4.20;;;2.10;;
55037;SDS011;40937;53.594;10.034;2023-03-08T01:36:53;3.22;;;1.98;;
55037;SDS011;40937;53.594;10.034;2023-03-08T01:39:20;3.47;;;2.22;;
55037;SDS011;40937;53.594;10.034;2023-03-08T01:41:48;4.43;;;2.15;;
55037;SDS011;40937;53.594;10.034;2023-03-08T01:44:15;5.35;;;2.40;;
55037;SDS011;40937;53.594;10.034;2023-03-08T01:46:44;1.77;;;1.67;;
55037;SDS011;40937;53.594;10.034;2023-03-08T01:49:17;7.43;;;1.98;;
55037;SDS011;40937;53.594;10.034;2023-03-08T01:51:51;3.67;;;2.15;;
55037;SDS011;40937;53.594;10.034;2023-03-08T01:56:52;3.78;;;2.30;;
55037;SDS011;40937;53.594;10.034;2023-03-08T01:59:23;4.15;;;2.35;;
55037;SDS011;40937;53.594;10.034;2023-03-08T02:01:51;2.30;;;1.98;;
55037;SDS011;40937;53.594;10.034;2023-03-08T02:04:19;5.25;;;2.80;;
55037;SDS011;40937;53.594;10.034;2023-03-08T02:06:47;6.75;;;2.70;;
55037;SDS011;40937;53.594;10.034;2023-03-08T02:09:20;4.40;;;2.28;;
55037;SDS011;40937;53.594;10.034;2023-03-08T02:11:48;4.43;;;2.33;;
55037;SDS011;40937;53.594;10.034;2023-03-08T02:14:16;2.83;;;2.50;;
55037;SDS011;40937;53.594;10.034;2023-03-08T02:16:49;2.97;;;2.60;;
55037;SDS011;40937;53.594;10.034;2023-03-08T02:19:19;3.05;;;2.80;;
55037;SDS011;40937;53.594;10.034;2023-03-08T02:21:49;6.60;;;2.97;;
55037;SDS011;40937;53.594;10.034;2023-03-08T02:24:19;3.25;;;2.90;;
55037;SDS011;40937;53.594;10.034;2023-03-08T02:26:48;5.07;;;3.17;;
55037;SDS011;40937;53.594;10.034;2023-03-08T02:29:17;4.57;;;3.05;;
55037;SDS011;40937;53.594;10.034;2023-03-08T02:31:44;5.32;;;4.50;;
55037;SDS011;40937;53.594;10.034;2023-03-08T02:34:11;5.30;;;3.65;;
55037;SDS011;40937;53.594;10.034;2023-03-08T02:36:38;5.32;;;2.92;;
55037;SDS011;40937;53.594;10.034;2023-03-08T02:39:05;5.60;;;2.85;;
55037;SDS011;40937;53.594;10.034;2023-03-08T02:41:34;5.80;;;3.40;;
55037;SDS011;40937;53.594;10.034;2023-03-08T02:44:01;4.28;;;3.42;;
55037;SDS011;40937;53.594;10.034;2023-03-08T02:46:29;4.15;;;3.03;;
55037;SDS011;40937;53.594;10.034;2023-03-08T02:48:57;3.33;;;3.03;;
55037;SDS011;40937;53.594;10.034;2023-03-08T02:51:26;6.07;;;3.60;;
55037;SDS011;40937;53.594;10.034;2023-03-08T02:53:53;6.43;;;3.08;;
55037;SDS011;40937;53.594;10.034;2023-03-08T02:56:20;4.30;;;3.17;;
55037;SDS011;40937;53.594;10.034;2023-03-08T02:58:49;3.30;;;3.00;;
55037;SDS011;40937;53.594;10.034;2023-03-08T03:01:16;5.28;;;3.22;;
55037;SDS011;40937;53.594;10.034;2023-03-08T03:03:43;4.65;;;3.58;;
55037;SDS011;40937;53.594;10.034;2023-03-08T03:06:12;4.78;;;3.92;;
55037;SDS011;40937;53.594;10.034;2023-03-08T03:08:42;4.13;;;3.75;;
55037;SDS011;40937;53.594;10.034;2023-03-08T03:11:10;4.20;;;3.80;;
55037;SDS011;40937;53.594;10.034;2023-03-08T03:13:39;8.30;;;4.53;;
55037;SDS011;40937;53.594;10.034;2023-03-08T03:16:09;7.68;;;3.88;;
55037;SDS011;40937;53.594;10.034;2023-03-08T03:18:38;4.65;;;4.00;;
55037;SDS011;40937;53.594;10.034;2023-03-08T03:21:06;3.75;;;3.45;;
55037;SDS011;40937;53.594;10.034;2023-03-08T03:23:35;7.78;;;3.97;;
55037;SDS011;40937;53.594;10.034;2023-03-08T03:26:03;4.25;;;3.72;;
55037;SDS011;40937;53.594;10.034;2023-03-08T03:28:32;4.07;;;3.28;;
55037;SDS011;40937;53.594;10.034;2023-03-08T03:31:00;4.78;;;4.00;;
55037;SDS011;40937;53.594;10.034;2023-03-08T03:33:29;3.70;;;3.40;;
55037;SDS011;40937;53.594;10.034;2023-03-08T03:35:57;3.70;;;3.30;;
55037;SDS011;40937;53.594;10.034;2023-03-08T03:38:25;4.82;;;3.58;;
55037;SDS011;40937;53.594;10.034;2023-03-08T03:40:58;5.53;;;3.67;;
55037;SDS011;40937;53.594;10.034;2023-03-08T03:43:26;4.18;;;3.88;;
55037;SDS011;40937;53.594;10.034;2023-03-08T03:45:54;4.30;;;3.90;;
55037;SDS011;40937;53.594;10.034;2023-03-08T03:48:23;4.55;;;4.15;;
55037;SDS011;40937;53.594;10.034;2023-03-08T03:50:55;4.28;;;3.55;;
55037;SDS011;40937;53.594;10.034;2023-03-08T03:53:24;4.88;;;3.58;;
55037;SDS011;40937;53.594;10.034;2023-03-08T03:55:53;4.32;;;3.38;;
55037;SDS011;40937;53.594;10.034;2023-03-08T03:58:21;4.53;;;3.83;;
55037;SDS011;40937;53.594;10.034;2023-03-08T04:00:49;3.90;;;3.60;;
55037;SDS011;40937;53.594;10.034;2023-03-08T04:03:26;4.53;;;3.40;;
55037;SDS011;40937;53.594;10.034;2023-03-08T04:06:03;4.85;;;3.53;;
55037;SDS011;40937;53.594;10.034;2023-03-08T04:08:32;3.72;;;3.50;;
55037;SDS011;40937;53.594;10.034;2023-03-08T04:10:59;7.65;;;3.83;;
55037;SDS011;40937;53.594;10.034;2023-03-08T04:13:27;3.55;;;3.33;;
55037;SDS011;40937;53.594;10.034;2023-03-08T04:15:54;4.32;;;3.90;;
55037;SDS011;40937;53.594;10.034;2023-03-08T04:18:21;4.03;;;3.60;;
55037;SDS011;40937;53.594;10.034;2023-03-08T04:20:49;3.40;;;3.10;;
55037;SDS011;40937;53.594;10.034;2023-03-08T04:23:18;3.70;;;3.40;;
55037;SDS011;40937;53.594;10.034;2023-03-08T04:25:46;4.10;;;3.30;;
55037;SDS011;40937;53.594;10.034;2023-03-08T04:28:15;5.63;;;3.70;;
55037;SDS011;40937;53.594;10.034;2023-03-08T04:30:43;4.18;;;3.10;;
55037;SDS011;40937;53.594;10.034;2023-03-08T04:33:10;4.90;;;3.35;;
55037;SDS011;40937;53.594;10.034;2023-03-08T04:35:45;3.88;;;3.22;;
55037;SDS011;40937;53.594;10.034;2023-03-08T04:38:13;5.55;;;3.30;;
55037;SDS011;40937;53.594;10.034;2023-03-08T04:40:47;8.20;;;3.55;;
55037;SDS011;40937;53.594;10.034;2023-03-08T04:43:39;4.70;;;3.33;;
55037;SDS011;40937;53.594;10.034;2023-03-08T04:46:09;3.65;;;3.35;;
55037;SDS011;40937;53.594;10.034;2023-03-08T04:48:40;6.55;;;3.28;;
55037;SDS011;40937;53.594;10.034;2023-03-08T04:51:09;3.60;;;2.65;;
55037;SDS011;40937;53.594;10.034;2023-03-08T04:53:38;4.88;;;3.25;;
55037;SDS011;40937;53.594;10.034;2023-03-08T04:56:09;6.55;;;3.00;;
55037;SDS011;40937;53.594;10.034;2023-03-08T04:58:38;5.93;;;3.33;;
55037;SDS011;40937;53.594;10.034;2023-03-08T05:01:10;5.40;;;3.25;;
55037;SDS011;40937;53.594;10.034;2023-03-08T05:03:40;5.72;;;2.90;;
55037;SDS011;40937;53.594;10.034;2023-03-08T05:06:07;3.70;;;2.90;;
55037;SDS011;40937;53.594;10.034;2023-03-08T05:08:35;10.43;;;3.33;;
55037;SDS011;40937;53.594;10.034;2023-03-08T05:11:04;3.20;;;2.90;;
55037;SDS011;40937;53.594;10.034;2023-03-08T05:13:37;4.60;;;3.72;;
55037;SDS011;40937;53.594;10.034;2023-03-08T05:16:06;3.75;;;3.08;;
55037;SDS011;40937;53.594;10.034;2023-03-08T05:18:34;3.25;;;2.95;;
55037;SDS011;40937;53.594;10.034;2023-03-08T05:21:03;4.15;;;2.65;;
55037;SDS011;40937;53.594;10.034;2023-03-08T05:23:33;3.25;;;2.70;;
55037;SDS011;40937;53.594;10.034;2023-03-08T05:26:01;3.15;;;2.85;;
55037;SDS011;40937;53.594;10.034;2023-03-08T05:28:30;3.17;;;2.97;;
55037;SDS011;40937;53.594;10.034;2023-03-08T05:31:01;4.00;;;2.67;;
55037;SDS011;40937;53.594;10.034;2023-03-08T05:33:30;5.57;;;2.90;;
55037;SDS011;40937;53.594;10.034;2023-03-08T05:35:58;2.90;;;2.63;;
55037;SDS011;40937;53.594;10.034;2023-03-08T05:38:25;3.60;;;2.60;;
55037;SDS011;40937;53.594;10.034;2023-03-08T05:40:58;3.15;;;2.67;;
55037;SDS011;40937;53.594;10.034;2023-03-08T05:43:26;3.30;;;3.10;;
55037;SDS011;40937;53.594;10.034;2023-03-08T05:45:54;3.08;;;2.75;;
55037;SDS011;40937;53.594;10.034;2023-03-08T05:48:25;3.13;;;2.88;;
55037;SDS011;40937;53.594;10.034;2023-03-08T05:50:52;3.13;;;2.83;;
55037;SDS011;40937;53.594;10.034;2023-03-08T05:53:44;6.75;;;3.40;;
55037;SDS011;40937;53.594;10.034;2023-03-08T05:56:36;4.25;;;3.95;;
55037;SDS011;40937;53.594;10.034;2023-03-08T05:59:17;4.85;;;4.45;;
55037;SDS011;40937;53.594;10.034;2023-03-08T06:01:52;5.95;;;5.43;;
55037;SDS011;40937;53.594;10.034;2023-03-08T06:04:30;6.85;;;6.15;;
55037;SDS011;40937;53.594;10.034;2023-03-08T06:06:57;7.32;;;6.72;;
55037;SDS011;40937;53.594;10.034;2023-03-08T06:09:31;8.85;;;7.80;;
55037;SDS011;40937;53.594;10.034;2023-03-08T06:11:59;8.25;;;7.65;;
55037;SDS011;40937;53.594;10.034;2023-03-08T06:14:29;8.43;;;7.38;;
55037;SDS011;40937;53.594;10.034;2023-03-08T06:16:57;8.57;;;7.78;;
55037;SDS011;40937;53.594;10.034;2023-03-08T06:19:27;9.13;;;8.30;;
55037;SDS011;40937;53.594;10.034;2023-03-08T06:21:57;9.70;;;8.70;;
55037;SDS011;40937;53.594;10.034;2023-03-08T06:24:26;9.02;;;8.20;;
55037;SDS011;40937;53.594;10.034;2023-03-08T06:26:56;10.32;;;7.97;;
55037;SDS011;40937;53.594;10.034;2023-03-08T06:29:24;11.52;;;9.50;;
55037;SDS011;40937;53.594;10.034;2023-03-08T06:31:52;10.43;;;9.35;;
55037;SDS011;40937;53.594;10.034;2023-03-08T06:34:21;12.65;;;9.60;;
55037;SDS011;40937;53.594;10.034;2023-03-08T06:36:51;13.07;;;10.43;;
55037;SDS011;40937;53.594;10.034;2023-03-08T06:39:21;13.93;;;10.02;;
55037;SDS011;40937;53.594;10.034;2023-03-08T06:41:48;11.70;;;10.60;;
55037;SDS011;40937;53.594;10.034;2023-03-08T06:44:15;11.68;;;10.10;;
55037;SDS011;40937;53.594;10.034;2023-03-08T06:46:43;11.85;;;10.65;;
55037;SDS011;40937;53.594;10.034;2023-03-08T06:49:10;12.10;;;10.02;;
55037;SDS011;40937;53.594;10.034;2023-03-08T06:51:37;11.52;;;10.30;;
55037;SDS011;40937;53.594;10.034;2023-03-08T06:54:05;11.80;;;10.60;;
55037;SDS011;40937;53.594;10.034;2023-03-08T06:56:34;21.25;;;10.15;;
55037;SDS011;40937;53.594;10.034;2023-03-08T06:59:01;11.70;;;9.90;;
55037;SDS011;40937;53.594;10.034;2023-03-08T07:01:28;12.57;;;9.63;;
55037;SDS011;40937;53.594;10.034;2023-03-08T07:03:56;10.57;;;9.48;;
55037;SDS011;40937;53.594;10.034;2023-03-08T07:06:24;12.35;;;11.05;;
55037;SDS011;40937;53.594;10.034;2023-03-08T07:08:51;12.13;;;10.65;;
55037;SDS011;40937;53.594;10.034;2023-03-08T07:11:18;11.88;;;10.05;;
55037;SDS011;40937;53.594;10.034;2023-03-08T07:13:47;11.70;;;10.48;;
55037;SDS011;40937;53.594;10.034;2023-03-08T07:16:14;9.93;;;9.02;;
55037;SDS011;40937;53.594;10.034;2023-03-08T07:18:41;11.10;;;9.90;;
55037;SDS011;40937;53.594;10.034;2023-03-08T07:21:09;14.77;;;10.80;;
55037;SDS011;40937;53.594;10.034;2023-03-08T07:23:36;12.30;;;10.70;;
55037;SDS011;40937;53.594;10.034;2023-03-08T07:26:04;16.35;;;10.38;;
55037;SDS011;40937;53.594;10.034;2023-03-08T07:28:31;12.48;;;11.23;;
55037;SDS011;40937;53.594;10.034;2023-03-08T07:31:00;20.83;;;12.13;;
55037;SDS011;40937;53.594;10.034;2023-03-08T07:33:27;25.52;;;13.38;;
55037;SDS011;40937;53.594;10.034;2023-03-08T07:35:57;16.90;;;13.77;;
55037;SDS011;40937;53.594;10.034;2023-03-08T07:38:26;19.58;;;14.55;;
55037;SDS011;40937;53.594;10.034;2023-03-08T07:40:53;22.10;;;14.93;;
55037;SDS011;40937;53.594;10.034;2023-03-08T07:43:21;19.52;;;14.25;;
55037;SDS011;40937;53.594;10.034;2023-03-08T07:45:57;15.77;;;13.85;;
55037;SDS011;40937;53.594;10.034;2023-03-08T07:48:27;20.83;;;15.43;;
55037;SDS011;40937;53.594;10.034;2023-03-08T07:50:54;21.40;;;18.73;;
55037;SDS011;40937;53.594;10.034;2023-03-08T07:53:26;22.33;;;16.15;;
55037;SDS011;40937;53.594;10.034;2023-03-08T07:55:55;18.35;;;13.90;;
55037;SDS011;40937;53.594;10.034;2023-03-08T07:58:23;17.20;;;13.52;;
55037;SDS011;40937;53.594;10.034;2023-03-08T08:00:50;15.45;;;13.85;;
55037;SDS011;40937;53.594;10.034;2023-03-08T08:03:19;24.00;;;14.45;;
55037;SDS011;40937;53.594;10.034;2023-03-08T08:05:47;16.80;;;14.00;;
55037;SDS011;40937;53.594;10.034;2023-03-08T08:08:14;16.15;;;14.43;;
55037;SDS011;40937;53.594;10.034;2023-03-08T08:10:41;23.20;;;15.75;;
55037;SDS011;40937;53.594;10.034;2023-03-08T08:13:09;21.67;;;14.70;;
55037;SDS011;40937;53.594;10.034;2023-03-08T08:15:36;21.92;;;15.93;;
55037;SDS011;40937;53.594;10.034;2023-03-08T08:18:03;17.30;;;15.45;;
55037;SDS011;40937;53.594;10.034;2023-03-08T08:20:32;19.98;;;16.77;;
55037;SDS011;40937;53.594;10.034;2023-03-08T08:22:59;25.67;;;17.33;;
55037;SDS011;40937;53.594;10.034;2023-03-08T08:25:26;18.80;;;15.52;;
55037;SDS011;40937;53.594;10.034;2023-03-08T08:27:54;17.58;;;15.68;;
55037;SDS011;40937;53.594;10.034;2023-03-08T08:30:23;17.65;;;15.73;;
55037;SDS011;40937;53.594;10.034;2023-03-08T08:32:50;16.67;;;14.48;;
55037;SDS011;40937;53.594;10.034;2023-03-08T08:35:17;20.23;;;15.10;;
55037;SDS011;40937;53.594;10.034;2023-03-08T08:37:46;17.58;;;15.32;;
55037;SDS011;40937;53.594;10.034;2023-03-08T08:40:13;15.85;;;13.70;;
55037;SDS011;40937;53.594;10.034;2023-03-08T08:42:40;22.55;;;16.85;;
55037;SDS011;40937;53.594;10.034;2023-03-08T08:45:08;21.48;;;16.83;;
55037;SDS011;40937;53.594;10.034;2023-03-08T08:47:36;18.40;;;15.68;;
55037;SDS011;40937;53.594;10.034;2023-03-08T08:50:03;16.92;;;15.13;;
55037;SDS011;40937;53.594;10.034;2023-03-08T08:52:31;16.80;;;13.70;;
55037;SDS011;40937;53.594;10.034;2023-03-08T08:54:59;17.65;;;14.55;;
55037;SDS011;40937;53.594;10.034;2023-03-08T08:57:26;15.38;;;13.75;;
55037;SDS011;40937;53.594;10.034;2023-03-08T08:59:54;16.17;;;13.40;;
55037;SDS011;40937;53.594;10.034;2023-03-08T09:02:21;16.17;;;13.30;;
55037;SDS011;40937;53.594;10.034;2023-03-08T09:22:50;33.67;;;19.35;;
55037;SDS011;40937;53.594;10.034;2023-03-08T09:25:17;28.83;;;18.88;;
55037;SDS011;40937;53.594;10.034;2023-03-08T09:27:56;21.63;;;18.20;;
55037;SDS011;40937;53.594;10.034;2023-03-08T09:30:23;22.27;;;20.08;;
55037;SDS011;40937;53.594;10.034;2023-03-08T09:32:50;23.88;;;21.55;;
55037;SDS011;40937;53.594;10.034;2023-03-08T09:35:17;24.38;;;21.80;;
55037;SDS011;40937;53.594;10.034;2023-03-08T09:37:45;22.10;;;19.88;;
55037;SDS011;40937;53.594;10.034;2023-03-08T09:40:18;23.92;;;18.88;;
55037;SDS011;40937;53.594;10.034;2023-03-08T09:42:47;21.33;;;19.23;;
55037;SDS011;40937;53.594;10.034;2023-03-08T09:45:21;21.20;;;17.98;;
55037;SDS011;40937;53.594;10.034;2023-03-08T09:47:54;21.70;;;19.50;;
55037;SDS011;40937;53.594;10.034;2023-03-08T09:50:34;23.10;;;19.67;;
55037;SDS011;40937;53.594;10.034;2023-03-08T09:53:10;22.58;;;20.05;;
55037;SDS011;40937;53.594;10.034;2023-03-08T09:55:46;25.42;;;20.38;;
55037;SDS011;40937;53.594;10.034;2023-03-08T09:58:18;23.50;;;20.65;;
55037;SDS011;40937;53.594;10.034;2023-03-08T10:00:54;21.30;;;18.98;;
55037;SDS011;40937;53.594;10.034;2023-03-08T10:03:39;20.25;;;18.20;;
55037;SDS011;40937;53.594;10.034;2023-03-08T10:06:31;30.35;;;18.60;;
55037;SDS011;40937;53.594;10.034;2023-03-08T10:09:02;19.08;;;17.20;;
55037;SDS011;40937;53.594;10.034;2023-03-08T10:11:42;22.00;;;18.33;;
55037;SDS011;40937;53.594;10.034;2023-03-08T10:14:15;25.77;;;17.20;;
55037;SDS011;40937;53.594;10.034;2023-03-08T10:16:45;20.42;;;18.55;;
55037;SDS011;40937;53.594;10.034;2023-03-08T10:19:20;20.23;;;18.33;;
55037;SDS011;40937;53.594;10.034;2023-03-08T10:21:52;22.15;;;17.02;;
55037;SDS011;40937;53.594;10.034;2023-03-08T10:24:23;18.33;;;14.52;;
55037;SDS011;40937;53.594;10.034;2023-03-08T10:26:59;18.10;;;15.10;;
55037;SDS011;40937;53.594;10.034;2023-03-08T10:29:46;17.80;;;15.93;;
55037;SDS011;40937;53.594;10.034;2023-03-08T10:32:14;21.48;;;16.48;;
55037;SDS011;40937;53.594;10.034;2023-03-08T10:34:41;19.95;;;17.25;;
55037;SDS011;40937;53.594;10.034;2023-03-08T10:37:08;19.20;;;16.83;;
55037;SDS011;40937;53.594;10.034;2023-03-08T10:39:35;19.92;;;17.95;;
55037;SDS011;40937;53.594;10.034;2023-03-08T10:42:11;18.08;;;16.05;;
55037;SDS011;40937;53.594;10.034;2023-03-08T10:44:44;19.67;;;15.18;;
55037;SDS011;40937;53.594;10.034;2023-03-08T10:47:18;19.73;;;14.30;;
55037;SDS011;40937;53.594;10.034;2023-03-08T10:49:47;17.95;;;16.05;;
55037;SDS011;40937;53.594;10.034;2023-03-08T10:52:20;21.60;;;15.23;;
55037;SDS011;40937;53.594;10.034;2023-03-08T10:54:59;16.98;;;15.23;;
55037;SDS011;40937;53.594;10.034;2023-03-08T10:57:28;16.85;;;13.70;;
55037;SDS011;40937;53.594;10.034;2023-03-08T10:59:57;17.30;;;13.57;;
55037;SDS011;40937;53.594;10.034;2023-03-08T11:02:32;15.73;;;13.90;;
55037;SDS011;40937;53.594;10.034;2023-03-08T11:04:59;14.85;;;11.98;;
55037;SDS011;40937;53.594;10.034;2023-03-08T11:07:27;14.02;;;12.57;;
55037;SDS011;40937;53.594;10.034;2023-03-08T11:10:13;15.73;;;14.13;;
55037;SDS011;40937;53.594;10.034;2023-03-08T11:12:43;18.05;;;13.52;;
55037;SDS011;40937;53.594;10.034;2023-03-08T11:15:12;16.75;;;12.85;;
55037;SDS011;40937;53.594;10.034;2023-03-08T11:17:41;18.83;;;14.32;;
55037;SDS011;40937;53.594;10.034;2023-03-08T11:20:15;18.50;;;14.63;;
55037;SDS011;40937;53.594;10.034;2023-03-08T11:22:52;21.63;;;14.20;;
55037;SDS011;40937;53.594;10.034;2023-03-08T11:25:32;17.40;;;14.13;;
55037;SDS011;40937;53.594;10.034;2023-03-08T11:28:07;15.65;;;14.10;;
55037;SDS011;40937;53.594;10.034;2023-03-08T11:30:49;16.25;;;13.75;;
55037;SDS011;40937;53.594;10.034;2023-03-08T11:33:38;18.73;;;13.07;;
55037;SDS011;40937;53.594;10.034;2023-03-08T11:36:17;16.15;;;11.95;;
55037;SDS011;40937;53.594;10.034;2023-03-08T11:38:50;16.33;;;12.20;;
55037;SDS011;40937;53.594;10.034;2023-03-08T11:41:24;15.95;;;13.15;;
55037;SDS011;40937;53.594;10.034;2023-03-08T11:44:07;14.85;;;13.38;;
55037;SDS011;40937;53.594;10.034;2023-03-08T11:46:44;16.83;;;15.05;;
55037;SDS011;40937;53.594;10.034;2023-03-08T11:49:23;19.52;;;13.80;;
55037;SDS011;40937;53.594;10.034;2023-03-08T11:52:02;13.25;;;11.98;;
55037;SDS011;40937;53.594;10.034;2023-03-08T11:54:43;12.07;;;11.02;;
55037;SDS011;40937;53.594;10.034;2023-03-08T11:57:20;18.50;;;10.93;;
55037;SDS011;40937;53.594;10.034;2023-03-08T11:59:53;11.80;;;10.70;;
55037;SDS011;40937;53.594;10.034;2023-03-08T12:02:23;11.82;;;10.73;;
55037;SDS011;40937;53.594;10.034;2023-03-08T12:04:56;16.05;;;11.88;;
55037;SDS011;40937;53.594;10.034;2023-03-08T12:07:30;11.63;;;10.45;;
55037;SDS011;40937;53.594;10.034;2023-03-08T12:10:02;11.40;;;10.20;;
55037;SDS011;40937;53.594;10.034;2023-03-08T12:12:39;16.85;;;10.43;;
55037;SDS011;40937;53.594;10.034;2023-03-08T12:15:17;11.53;;;10.50;;
55037;SDS011;40937;53.594;10.034;2023-03-08T12:17:52;11.23;;;10.32;;
55037;SDS011;40937;53.594;10.034;2023-03-08T12:20:22;11.35;;;9.98;;
55037;SDS011;40937;53.594;10.034;2023-03-08T12:22:53;11.27;;;10.25;;
55037;SDS011;40937;53.594;10.034;2023-03-08T12:25:26;9.60;;;8.63;;
55037;SDS011;40937;53.594;10.034;2023-03-08T12:27:57;8.95;;;8.35;;
55037;SDS011;40937;53.594;10.034;2023-03-08T12:30:41;10.05;;;9.05;;
55037;SDS011;40937;53.594;10.034;2023-03-08T12:33:17;9.15;;;8.20;;
55037;SDS011;40937;53.594;10.034;2023-03-08T12:35:51;11.30;;;8.80;;
55037;SDS011;40937;53.594;10.034;2023-03-08T12:38:27;10.20;;;8.65;;
55037;SDS011;40937;53.594;10.034;2023-03-08T12:40:57;9.50;;;8.52;;
55037;SDS011;40937;53.594;10.034;2023-03-08T12:43:28;10.00;;;8.95;;
55037;SDS011;40937;53.594;10.034;2023-03-08T12:46:01;11.43;;;8.10;;
55037;SDS011;40937;53.594;10.034;2023-03-08T12:48:32;9.73;;;8.93;;
55037;SDS011;40937;53.594;10.034;2023-03-08T12:51:03;8.05;;;7.25;;
55037;SDS011;40937;53.594;10.034;2023-03-08T12:53:35;8.95;;;7.57;;
55037;SDS011;40937;53.594;10.034;2023-03-08T12:56:19;10.90;;;8.82;;
55037;SDS011;40937;53.594;10.034;2023-03-08T12:58:50;10.65;;;9.70;;
55037;SDS011;40937;53.594;10.034;2023-03-08T13:01:26;9.50;;;8.20;;
55037;SDS011;40937;53.594;10.034;2023-03-08T13:03:56;9.20;;;8.30;;
55037;SDS011;40937;53.594;10.034;2023-03-08T13:06:31;13.85;;;8.43;;
55037;SDS011;40937;53.594;10.034;2023-03-08T13:09:17;9.00;;;8.20;;
55037;SDS011;40937;53.594;10.034;2023-03-08T13:11:49;8.38;;;7.72;;
55037;SDS011;40937;53.594;10.034;2023-03-08T13:14:22;12.90;;;9.73;;
55037;SDS011;40937;53.594;10.034;2023-03-08T13:16:53;13.40;;;9.18;;
55037;SDS011;40937;53.594;10.034;2023-03-08T13:19:23;11.68;;;10.68;;
55037;SDS011;40937;53.594;10.034;2023-03-08T13:21:55;11.32;;;10.23;;
55037;SDS011;40937;53.594;10.034;2023-03-08T13:24:37;12.13;;;10.95;;
55037;SDS011;40937;53.594;10.034;2023-03-08T13:27:12;11.45;;;10.32;;
55037;SDS011;40937;53.594;10.034;2023-03-08T13:29:48;12.75;;;9.52;;
55037;SDS011;40937;53.594;10.034;2023-03-08T13:32:18;11.70;;;10.60;;
55037;SDS011;40937;53.594;10.034;2023-03-08T13:34:50;11.55;;;10.15;;
55037;SDS011;40937;53.594;10.034;2023-03-08T13:37:24;12.02;;;11.05;;
55037;SDS011;40937;53.594;10.034;2023-03-08T13:39:54;11.18;;;10.27;;
55037;SDS011;40937;53.594;10.034;2023-03-08T13:42:23;12.75;;;10.23;;
55037;SDS011;40937;53.594;10.034;2023-03-08T13:45:04;10.93;;;10.02;;
55037;SDS011;40937;53.594;10.034;2023-03-08T13:47:34;11.00;;;9.80;;
55037;SDS011;40937;53.594;10.034;2023-03-08T13:50:05;12.38;;;11.13;;
55037;SDS011;40937;53.594;10.034;2023-03-08T13:52:35;11.60;;;10.65;;
55037;SDS011;40937;53.594;10.034;2023-03-08T13:55:04;15.32;;;11.02;;
55037;SDS011;40937;53.594;10.034;2023-03-08T13:57:34;11.10;;;10.00;;
55037;SDS011;40937;53.594;10.034;2023-03-08T14:00:18;10.32;;;9.43;;
55037;SDS011;40937;53.594;10.034;2023-03-08T14:02:52;11.20;;;8.50;;
55037;SDS011;40937;53.594;10.034;2023-03-08T14:05:20;10.30;;;9.43;;
55037;SDS011;40937;53.594;10.034;2023-03-08T14:07:59;9.32;;;8.52;;
55037;SDS011;40937;53.594;10.034;2023-03-08T14:10:29;9.93;;;8.32;;
55037;SDS011;40937;53.594;10.034;2023-03-08T14:13:01;8.55;;;7.95;;
55037;SDS011;40937;53.594;10.034;2023-03-08T14:15:30;9.32;;;8.63;;
55037;SDS011;40937;53.594;10.034;2023-03-08T14:18:01;11.27;;;8.30;;
55037;SDS011;40937;53.594;10.034;2023-03-08T14:20:29;8.90;;;8.20;;
55037;SDS011;40937;53.594;10.034;2023-03-08T14:22:57;9.65;;;8.85;;
55037;SDS011;40937;53.594;10.034;2023-03-08T14:25:25;11.00;;;8.90;;
55037;SDS011;40937;53.594;10.034;2023-03-08T14:27:54;9.40;;;8.50;;
55037;SDS011;40937;53.594;10.034;2023-03-08T14:30:22;8.13;;;7.53;;
55037;SDS011;40937;53.594;10.034;2023-03-08T14:32:53;8.82;;;8.02;;
55037;SDS011;40937;53.594;10.034;2023-03-08T14:35:25;8.98;;;8.18;;
55037;SDS011;40937;53.594;10.034;2023-03-08T14:37:54;8.30;;;7.70;;
55037;SDS011;40937;53.594;10.034;2023-03-08T14:40:24;7.32;;;6.78;;
55037;SDS011;40937;53.594;10.034;2023-03-08T14:42:54;12.27;;;7.95;;
55037;SDS011;40937;53.594;10.034;2023-03-08T14:45:23;8.43;;;7.63;;
55037;SDS011;40937;53.594;10.034;2023-03-08T14:47:53;13.20;;;11.43;;
55037;SDS011;40937;53.594;10.034;2023-03-08T14:50:23;8.88;;;7.97;;
55037;SDS011;40937;53.594;10.034;2023-03-08T14:52:55;8.52;;;6.10;;
55037;SDS011;40937;53.594;10.034;2023-03-08T14:55:25;6.32;;;5.82;;
55037;SDS011;40937;53.594;10.034;2023-03-08T14:57:54;9.35;;;6.43;;
55037;SDS011;40937;53.594;10.034;2023-03-08T15:00:25;6.35;;;5.88;;
55037;SDS011;40937;53.594;10.034;2023-03-08T15:02:54;6.85;;;5.40;;